Front Circassia — V7JX6 — position and weather

sailwx.info

Track history (hours):
 
Tides and Currents Weather Stations Pressure Air Temp Water Temp Dewpoint Dewpoint Depression Visibility Wind Speed Wind Dir Waves Ship Positions

Front Circassia

Last reported at 2014-Oct-28 01:17 UTC. Time now 2014-Nov-24 08:18 UTC.
Position N 01°09' E 103°42'.
Warning: this ship's position is 27 days out of date.

Length 333 m; draft 10.5 m.

Type: Tanker. MMSI: 538002584.

Date/timePositionNaut miles runAvg speedWind from/ knotsBaromVisibWave heightAir tempDewpointWater temp
2014-Oct-28 01:17N 01°09' E 103°42'810.9
2014-Oct-28 00:32N 01°11' E 103°50'1110.7
2014-Oct-27 23:33N 01°15' E 103°60'6 6.3
2014-Oct-27 22:33N 01°18' E 104°05'0 0.0
2014-Oct-27 20:04N 01°18' E 104°05'0 0.1
2014-Oct-27 19:28N 01°18' E 104°05'0 0.1
2014-Oct-27 18:28N 01°18' E 104°05'0 0.1
2014-Oct-27 17:28N 01°18' E 104°05'0 0.1
2014-Oct-27 16:28N 01°18' E 104°05'0 0.1
2014-Oct-27 15:28N 01°18' E 104°05'0 0.1
2014-Oct-27 14:13N 01°18' E 104°05'0 0.2
2014-Oct-27 12:28N 01°18' E 104°06'0 0.0
2014-Oct-27 11:28N 01°18' E 104°06'0 0.0
2014-Oct-27 10:25N 01°18' E 104°06'0 0.0
2014-Oct-27 09:31N 01°18' E 104°06'0 0.0
2014-Oct-27 08:10N 01°18' E 104°06'0 0.0
2014-Oct-27 06:28N 01°18' E 104°06'0 0.3
2014-Oct-27 05:22N 01°18' E 104°05'0 0.1
2014-Oct-27 03:22N 01°18' E 104°05'0 0.0
2014-Oct-27 02:31N 01°18' E 104°05'0 0.0
2014-Oct-27 01:21N 01°18' E 104°05'1 1.3
2014-Oct-27 00:33N 01°17' E 104°06'3 3.3
2014-Oct-26 23:29N 01°17' E 104°09'6 6.5
2014-Oct-26 22:32N 01°18' E 104°15'  
Track history (hours):
 
Tides and Currents Weather Stations Pressure Air Temp Water Temp Dewpoint Dewpoint Depression Visibility Wind Speed Wind Dir Waves Ship Positions

Front Circassia

Last reported at 2014-Oct-28 01:17 UTC. Time now 2014-Nov-24 08:18 UTC.
Position N 01°09' E 103°42'.
Warning: this ship's position is 27 days out of date.

Length 333 m; draft 10.5 m.

Type: Tanker. MMSI: 538002584.

Date/timePositionNaut miles runAvg speedWind from/ knotsBaromVisibWave heightAir tempDewpointWater temp
2014-Oct-28 01:17N 01°09' E 103°42'810.9
2014-Oct-28 00:32N 01°11' E 103°50'1110.7
2014-Oct-27 23:33N 01°15' E 103°60'6 6.3
2014-Oct-27 22:33N 01°18' E 104°05'0 0.0
2014-Oct-27 20:04N 01°18' E 104°05'0 0.1
2014-Oct-27 19:28N 01°18' E 104°05'0 0.1
2014-Oct-27 18:28N 01°18' E 104°05'0 0.1
2014-Oct-27 17:28N 01°18' E 104°05'0 0.1
2014-Oct-27 16:28N 01°18' E 104°05'0 0.1
2014-Oct-27 15:28N 01°18' E 104°05'0 0.1
2014-Oct-27 14:13N 01°18' E 104°05'0 0.2
2014-Oct-27 12:28N 01°18' E 104°06'0 0.0
2014-Oct-27 11:28N 01°18' E 104°06'0 0.0
2014-Oct-27 10:25N 01°18' E 104°06'0 0.0
2014-Oct-27 09:31N 01°18' E 104°06'0 0.0
2014-Oct-27 08:10N 01°18' E 104°06'0 0.0
2014-Oct-27 06:28N 01°18' E 104°06'0 0.3
2014-Oct-27 05:22N 01°18' E 104°05'0 0.1
2014-Oct-27 03:22N 01°18' E 104°05'0 0.0
2014-Oct-27 02:31N 01°18' E 104°05'0 0.0
2014-Oct-27 01:21N 01°18' E 104°05'1 1.3
2014-Oct-27 00:33N 01°17' E 104°06'3 3.3
2014-Oct-26 23:29N 01°17' E 104°09'6 6.5
2014-Oct-26 22:32N 01°18' E 104°15'  

Dump ship's entire track history